Latest Weather Observations for Mount Hotham Airport

IDV60801

Issued at 6:32 pm EST Wednesday 24 August 2016 (issued every 30 minutes, with the page automatically refreshed every 10 minutes)

About weather observations | Map of weather stations | Latest weather observations for VIC | Other Formats
Station Details ID: 083055 Name: MOUNT HOTHAM AIRPORT Lat: -37.05 Lon: 147.33 Height: 1295.4 m
Data from the previous 72 hours. | See also: Recent months at Mount Hotham Airport
Date/Time
EST
Temp
°C
App
Temp
°C
Dew
Point
°C
Rel
Hum
%
Delta-T
°C
Wind Press
QNH
hPa
Press
MSL
hPa
Rain since
9am
mm
Dir  Spd
km/h
Gust
km/h
Spd
kts
Gust
kts
24/06:30pm 1.8 -2.2 0.5 91 0.5 S 11 15 6 8 1010.3 - 0.0
24/06:00pm 2.0 -2.0 0.4 89 0.7 S 11 15 6 8 1010.0 1013.0 0.0
24/05:30pm 2.6 -1.0 0.7 87 0.8 S 9 15 5 8 1010.0 - 0.0
24/05:00pm 2.9 -0.2 1.6 91 0.5 SSE 7 9 4 5 1009.8 - 0.0
24/04:30pm 3.1 -0.7 1.5 89 0.7 ESE 11 15 6 8 1010.1 - 0.0
24/04:00pm 3.7 0.6 1.6 86 0.9 SE 7 11 4 6 1009.8 - 0.0
24/03:30pm 4.0 0.1 1.4 83 1.1 ESE 11 17 6 9 1009.8 - 0.0
24/03:00pm 5.2 0.9 0.8 73 1.9 ESE 13 17 7 9 1009.7 1012.8 0.0
24/02:30pm 5.9 1.4 -0.6 63 2.7 S 13 20 7 11 1009.8 - 0.0
24/02:00pm 6.0 3.0 -1.6 58 3.1 SSE 4 7 2 4 1010.1 - 0.0
24/01:30pm 5.6 1.7 -1.5 60 2.9 S 9 15 5 8 1010.3 - 0.0
24/01:00pm 5.5 1.7 -0.8 64 2.6 SSE 9 15 5 8 1010.8 - 0.0
24/12:30pm 7.1 3.5 0.5 63 2.8 SE 9 15 5 8 1011.2 - 0.0
24/12:00pm 5.7 1.9 -0.4 65 2.5 SE 9 15 5 8 1011.7 1014.7 0.0
24/11:30am 5.0 1.7 -0.2 69 2.1 ESE 7 11 4 6 1012.1 - 0.0
24/11:00am 4.6 1.5 0.4 74 1.8 SE 6 9 3 5 1012.5 - 0.0
24/10:30am 3.2 0.2 0.8 84 1.0 ESE 6 9 3 5 1012.6 - 0.0
24/10:00am 2.4 -0.6 0.5 87 0.8 ESE 6 7 3 4 1012.8 - 0.0
24/09:30am 2.0 -0.7 0.2 88 0.7 SE 4 6 2 3 1013.1 - 0.0
24/09:00am 1.4 -1.7 0.4 93 0.4 SSE 6 6 3 3 1013.4 1016.5 0.0
24/08:30am 1.7 0.0 1.6 99 0.0 CALM 0 0 0 0 1013.6 - 0.0
24/08:00am -0.1 -2.1 -0.2 99 0.0 CALM 0 0 0 0 1013.6 - 0.0
24/07:30am -2.1 -4.4 -2.2 99 -0.1 CALM 0 0 0 0 1013.5 - 0.0
24/07:24am -2.6 -4.9 -2.7 99 -0.1 CALM 0 0 0 0 1013.6 - 0.0
24/07:22am -2.6 -4.9 -2.7 99 -0.1 CALM 0 0 0 0 1013.6 - 0.0
24/07:00am -4.4 -7.0 -4.5 99 -0.2 CALM 0 0 0 0 1013.5 - 0.0
24/06:58am -3.7 -6.2 -3.8 99 -0.1 CALM 0 0 0 0 1013.5 - 0.0
24/06:56am -3.5 -6.0 -3.6 99 -0.1 CALM 0 0 0 0 1013.4 - 0.0
24/06:30am -3.3 -5.7 -3.4 99 -0.1 CALM 0 0 0 0 1013.2 - 0.0
24/06:09am -4.2 -6.7 -4.3 99 -0.1 CALM 0 0 0 0 1013.1 - 0.0
24/06:07am -4.2 -6.7 -4.3 99 -0.1 CALM 0 0 0 0 1013.1 - 0.0
24/06:00am -3.9 -6.4 -4.0 99 -0.1 CALM 0 0 0 0 1013.2 1016.4 0.0
24/05:55am -3.4 -5.8 -3.5 99 -0.1 CALM 0 0 0 0 1013.2 - 0.0
24/05:53am -3.4 -5.8 -3.5 99 -0.1 CALM 0 0 0 0 1013.2 - 0.0
24/05:30am -3.5 -6.0 -3.6 99 -0.1 CALM 0 0 0 0 1013.4 - 0.0
24/05:28am -3.8 -6.3 -3.9 99 -0.1 CALM 0 0 0 0 1013.4 - 0.0
24/05:00am -2.7 -5.1 -2.8 99 -0.1 CALM 0 0 0 0 1013.2 - 0.0
24/04:54am -2.6 -4.9 -2.7 99 -0.1 CALM 0 0 0 0 1013.1 - 0.0
24/04:52am -2.6 -4.9 -2.7 99 -0.1 CALM 0 0 0 0 1013.1 - 0.0
24/04:30am -3.8 -6.3 -3.9 99 -0.1 CALM 0 0 0 0 1013.2 - 0.0
24/04:21am -2.5 -4.8 -2.6 99 -0.1 CALM 0 0 0 0 1013.2 - 0.0
24/04:19am -2.5 -4.8 -2.6 99 -0.1 CALM 0 0 0 0 1013.2 - 0.0
24/04:12am -2.4 -4.7 -2.5 99 -0.1 CALM 0 0 0 0 1013.2 - 0.0
24/04:10am -2.4 -4.7 -2.5 99 -0.1 CALM 0 0 0 0 1013.2 - 0.0
24/04:00am -2.5 -4.8 -2.6 99 -0.1 CALM 0 0 0 0 1013.2 - 0.0
24/03:30am -2.6 -4.9 -2.7 99 -0.1 CALM 0 0 0 0 1013.4 - 0.0
24/03:00am -2.6 -4.9 -2.7 99 -0.1 CALM 0 0 0 0 1013.8 1017.0 0.0
24/02:30am -2.7 -5.4 -2.8 99 -0.1 WNW 2 2 1 1 1014.2 - 0.0
24/02:05am -2.6 -5.7 -2.7 99 -0.1 WNW 4 4 2 2 1014.4 - 0.0
24/02:03am -2.6 -5.7 -2.7 99 -0.1 WNW 4 4 2 2 1014.4 - 0.0
24/02:00am -3.0 -6.2 -3.1 99 -0.1 WNW 4 4 2 2 1014.5 - 0.0
24/01:46am -3.8 -7.0 -3.9 99 -0.1 NW 4 6 2 3 1014.6 - 0.0
24/01:44am -3.8 -7.0 -3.9 99 -0.1 NW 4 6 2 3 1014.6 - 0.0
24/01:30am -2.6 -6.1 -2.7 99 -0.1 NW 6 7 3 4 1014.6 - 0.0
24/01:12am -3.1 -6.7 -3.4 98 0.0 N 6 7 3 4 1014.7 - 0.0
24/01:10am -3.1 -6.7 -3.4 98 0.0 N 6 7 3 4 1014.7 - 0.0
24/01:00am -1.2 -4.5 -1.3 99 0.0 N 6 7 3 4 1014.8 - 0.0
24/12:30am -3.3 -5.8 -3.6 98 0.0 CALM 0 0 0 0 1015.1 - 0.0
24/12:00am -2.3 -5.4 -2.4 99 -0.1 NW 4 6 2 3 1015.3 1018.5 0.0
 
Date/Time
EST
Temp
°C
App
Temp
°C
Dew
Point
°C
Rel
Hum
%
Delta-T
°C
Wind Press
QNH
hPa
Press
MSL
hPa
Rain since
9am
mm
Dir  Spd
km/h
Gust
km/h
Spd
kts
Gust
kts
23/11:58pm -2.4 -5.9 -2.7 98 0.0 WNW 6 6 3 3 1015.3 - 0.0
23/11:56pm -2.4 -5.9 -2.7 98 0.0 WNW 6 6 3 3 1015.3 - 0.0
23/11:31pm -1.9 -4.6 -2.5 96 0.1 WNW 2 4 1 2 1015.6 - 0.0
23/11:30pm -1.9 -4.6 -2.5 96 0.1 WNW 2 4 1 2 1015.6 - 0.0
23/11:29pm -1.9 -4.6 -2.5 96 0.1 WNW 2 4 1 2 1015.6 - 0.0
23/11:00pm -0.8 -3.3 -1.2 97 0.1 W 2 4 1 2 1015.5 - 0.0
23/10:30pm -0.6 -3.5 -1.0 97 0.1 N 4 4 2 2 1015.7 - 0.0
23/10:00pm -0.8 -4.3 -1.4 96 0.2 SSW 7 7 4 4 1015.4 - 0.0
23/09:30pm -0.4 -3.8 -0.8 97 0.1 SSW 7 9 4 5 1015.7 - 0.0
23/09:00pm -0.2 -2.6 -0.6 97 0.1 W 2 6 1 3 1015.9 1019.1 0.0
23/08:30pm -0.3 -2.7 -0.6 98 0.1 SSW 2 6 1 3 1015.7 - 0.0
23/08:00pm -0.6 -4.4 -0.9 98 0.1 SSW 9 11 5 6 1015.3 - 0.0
23/07:55pm -0.6 -4.0 -0.9 98 0.1 SW 7 11 4 6 1015.3 - 0.0
23/07:53pm -0.6 -4.0 -0.9 98 0.1 SW 7 11 4 6 1015.3 - 0.0
23/07:44pm -0.7 -4.2 -1.1 97 0.1 SSW 7 11 4 6 1015.2 - 0.0
23/07:42pm -0.7 -4.2 -1.1 97 0.1 SSW 7 11 4 6 1015.2 - 0.0
23/07:30pm -0.3 -3.7 -0.7 97 0.1 SW 7 9 4 5 1015.2 - 0.0
23/07:00pm -0.1 -3.3 -0.7 96 0.2 SW 6 9 3 5 1014.9 - 0.0
23/06:30pm 0.7 -2.1 -0.3 93 0.4 S 4 6 2 3 1014.9 - 0.0
23/06:00pm 1.8 -0.9 0.3 90 0.6 SSW 4 6 2 3 1015.1 1018.3 0.0
23/05:30pm 3.0 0.3 0.6 84 1.0 ESE 4 4 2 2 1015.2 - 0.0
23/05:00pm 3.2 0.2 0.6 83 1.1 E 6 6 3 3 1015.2 - 0.0
23/04:30pm 3.5 0.3 0.7 82 1.2 ESE 7 9 4 5 1014.8 - 0.0
23/04:00pm 4.0 0.8 0.9 80 1.3 ESE 7 11 4 6 1014.6 - 0.0
23/03:30pm 4.2 0.7 1.1 80 1.3 ESE 9 11 5 6 1014.5 - 0.0
23/03:00pm 4.5 0.9 0.6 76 1.6 E 9 11 5 6 1014.3 1017.4 0.0
23/02:30pm 4.8 1.6 0.8 75 1.7 SE 7 13 4 7 1014.3 - 0.0
23/02:00pm 4.8 1.5 0.4 73 1.8 SE 7 13 4 7 1014.4 - 0.0
23/01:30pm 4.0 0.8 0.9 80 1.3 SE 7 13 4 7 1014.0 - 0.0
23/01:00pm 5.8 2.8 0.6 69 2.2 ENE 6 9 3 5 1014.0 - 0.0
23/12:30pm 3.1 -0.1 0.5 83 1.1 S 7 13 4 7 1014.4 - 0.0
23/12:00pm 4.9 2.2 2.6 85 1.0 SSE 6 11 3 6 1014.6 1017.8 0.0
23/11:30am 3.2 0.0 0.9 85 1.0 SE 7 11 4 6 1014.7 - 0.0
23/11:00am 2.5 -0.6 0.4 86 0.9 ESE 6 11 3 6 1014.8 - 0.0
23/10:30am 1.8 -1.8 0.6 92 0.5 S 9 15 5 8 1014.8 - 0.0
23/10:03am 1.5 -1.6 1.2 98 0.1 S 7 13 4 7 1014.9 - 0.0
23/10:01am 1.5 -1.6 1.2 98 0.1 S 7 13 4 7 1014.9 - 0.0
23/10:00am 1.4 -1.7 1.1 98 0.1 S 7 11 4 6 1014.9 - 0.0
23/09:45am 1.4 -1.8 0.8 96 0.2 S 7 9 4 5 1014.9 - 0.0
23/09:43am 1.4 -1.8 0.8 96 0.2 S 7 9 4 5 1014.9 - 0.0
23/09:30am 1.5 -1.1 0.8 95 0.3 SW 4 7 2 4 1015.1 - 0.0
23/09:00am 1.3 -2.2 1.2 99 0.0 SSW 9 15 5 8 1014.8 1018.0 0.0
23/08:30am 1.5 -1.4 1.4 99 0.0 S 6 9 3 5 1014.7 - 0.0
23/08:19am 1.1 -2.4 1.0 99 0.0 SSW 9 13 5 7 1014.6 - 0.0
23/08:17am 1.1 -2.4 1.0 99 0.0 SSW 9 13 5 7 1014.6 - 0.0
23/08:00am 0.9 -2.7 0.8 99 0.0 S 9 11 5 6 1014.5 - 0.0
23/07:58am 0.8 -2.8 0.7 99 0.0 SSW 9 13 5 7 1014.5 - 0.0
23/07:44am 0.6 -2.4 0.5 99 0.0 WSW 6 9 3 5 1014.4 - 0.0
23/07:42am 0.6 -2.4 0.5 99 0.0 WSW 6 9 3 5 1014.4 - 0.0
23/07:30am 0.4 -2.7 0.3 99 0.0 SSW 6 7 3 4 1014.3 - 0.0
23/07:09am 0.4 -2.3 0.3 99 0.0 SSW 4 6 2 3 1013.9 - 0.0
23/07:07am 0.4 -2.3 0.3 99 0.0 SSW 4 6 2 3 1013.9 - 0.0
23/07:00am 0.3 -2.8 0.2 99 0.0 SSW 6 7 3 4 1013.9 - 0.0
23/06:30am 0.2 -3.1 0.1 99 0.0 S 7 11 4 6 1013.7 - 0.0
23/06:00am 0.6 -2.1 0.5 99 0.0 SW 4 7 2 4 1013.4 1016.5 0.0
23/05:30am 0.6 -2.4 0.5 99 0.0 SSW 6 7 3 4 1013.1 - 0.0
23/05:00am 0.5 -2.6 0.4 99 0.0 S 6 7 3 4 1013.1 - 0.0
23/04:30am 0.3 -2.4 0.2 99 0.0 W 4 6 2 3 1013.0 - 0.0
23/04:00am 0.4 -2.3 0.3 99 0.0 W 4 4 2 2 1013.0 - 0.0
23/03:30am 0.3 -2.4 0.2 99 0.0 NW 4 6 2 3 1013.0 - 0.0
23/03:00am 0.7 -1.2 0.6 99 0.0 CALM 0 2 0 1 1013.0 1016.2 0.0
23/02:42am 0.7 -2.3 0.6 99 0.0 SSW 6 7 3 4 1013.1 - 0.0
23/02:40am 0.7 -2.3 0.6 99 0.0 SSW 6 7 3 4 1013.1 - 0.0
23/02:30am 0.6 -2.4 0.5 99 0.0 S 6 7 3 4 1013.1 - 0.0
23/02:24am 0.6 -2.4 0.5 99 0.0 S 6 9 3 5 1013.1 - 0.0
23/02:22am 0.6 -2.4 0.5 99 0.0 S 6 9 3 5 1013.1 - 0.0
23/02:00am 0.3 -2.8 0.2 99 0.0 SW 6 9 3 5 1013.0 - 0.0
23/01:30am 0.7 -2.5 0.6 99 0.0 S 7 9 4 5 1013.2 - 0.0
23/01:00am 0.3 -3.4 0.2 99 0.0 SSW 9 13 5 7 1013.2 - 0.0
23/12:30am -0.8 -4.1 -0.9 99 0.0 SW 6 7 3 4 1013.2 - 0.0
23/12:00am -0.1 -3.3 -0.2 99 0.0 SW 6 7 3 4 1013.4 1016.5 0.0
 
Date/Time
EST
Temp
°C
App
Temp
°C
Dew
Point
°C
Rel
Hum
%
Delta-T
°C
Wind Press
QNH
hPa
Press
MSL
hPa
Rain since
9am
mm
Dir  Spd
km/h
Gust
km/h
Spd
kts
Gust
kts
22/11:30pm -0.1 -3.4 -0.2 99 0.0 SW 7 9 4 5 1013.5 - 0.0
22/11:00pm 0.0 -3.1 -0.1 99 0.0 SSW 6 9 3 5 1013.6 - 0.0
22/10:30pm 0.5 -2.6 0.4 99 0.0 SSW 6 7 3 4 1013.7 - 0.0
22/10:16pm 0.2 -2.9 0.1 99 0.0 S 6 11 3 6 1013.7 - 0.0
22/10:14pm 0.2 -2.9 0.1 99 0.0 S 6 11 3 6 1013.7 - 0.0
22/10:00pm -0.8 -3.3 -1.2 97 0.1 SSW 2 4 1 2 1013.7 - 0.0
22/09:59pm -0.9 -3.4 -1.3 97 0.1 SSW 2 4 1 2 1013.7 - 0.0
22/09:57pm -0.9 -3.4 -1.3 97 0.1 SSW 2 4 1 2 1013.7 - 0.0
22/09:46pm -0.9 -3.5 -1.5 96 0.2 WSW 2 6 1 3 1013.7 - 0.0
22/09:44pm -0.9 -3.5 -1.5 96 0.2 WSW 2 6 1 3 1013.7 - 0.0
22/09:30pm -0.9 -3.5 -1.9 93 0.3 ESE 2 6 1 3 1013.7 - 0.0
22/09:29pm -0.7 -3.7 -1.7 93 0.3 ESE 4 6 2 3 1013.7 - 0.0
22/09:27pm -0.7 -3.7 -1.7 93 0.3 ESE 4 6 2 3 1013.7 - 0.0
22/09:00pm 0.0 -2.8 -0.7 95 0.3 SSW 4 6 2 3 1013.6 1016.7 0.0
22/08:30pm -0.1 -3.4 -1.2 92 0.4 SW 6 7 3 4 1013.6 - 0.0
22/08:00pm 1.0 -1.4 -0.1 92 0.4 NW 2 7 1 4 1013.6 - 0.0
22/07:31pm 1.1 -1.7 -0.1 92 0.5 WNW 4 4 2 2 1013.5 - 0.0
22/07:30pm 1.1 -1.7 -0.1 92 0.5 WNW 4 6 2 3 1013.5 - 0.0
22/07:29pm 1.1 -1.7 -0.1 92 0.5 WNW 4 4 2 2 1013.5 - 0.0
22/07:20pm 0.9 -1.1 -0.2 92 0.4 CALM 0 4 0 2 1013.5 - 0.0
22/07:18pm 0.9 -1.1 -0.2 92 0.4 CALM 0 4 0 2 1013.5 - 0.0
22/07:00pm 0.8 -2.0 -0.2 93 0.4 WNW 4 6 2 3 1013.4 - 0.0
22/06:30pm 0.3 -1.9 -1.4 88 0.7 CALM 0 2 0 1 1012.9 - 0.0
22/06:00pm 1.3 -2.0 -1.3 83 1.0 NW 6 7 3 4 1012.6 1015.7 0.0
22/05:30pm 2.4 -1.1 -1.4 76 1.5 W 7 11 4 6 1012.3 - 0.0
22/05:00pm 3.2 -0.9 -0.3 78 1.4 NW 11 17 6 9 1012.1 - 0.0
22/04:30pm 3.9 -0.5 0.2 77 1.5 W 13 19 7 10 1012.1 - 0.0
22/04:00pm 5.0 1.3 0.2 71 2.0 W 9 17 5 9 1012.0 - 0.0
22/03:30pm 4.7 0.6 -0.5 69 2.1 NW 11 15 6 8 1012.0 - 0.0
22/03:00pm 5.4 1.6 -0.6 65 2.5 NW 9 15 5 8 1012.0 1015.1 0.0
22/02:30pm 5.1 1.4 -0.3 68 2.2 NNW 9 15 5 8 1012.1 - 0.0
22/02:00pm 5.1 1.3 -0.5 67 2.3 WNW 9 19 5 10 1012.3 - 0.0
22/01:30pm 4.7 0.7 0.3 73 1.8 NW 11 19 6 10 1012.8 - 0.0
22/01:00pm 4.3 -0.5 -0.1 73 1.8 NW 15 22 8 12 1013.0 - 0.0
22/12:30pm 4.6 0.2 0.2 73 1.8 WNW 13 19 7 10 1013.4 - 0.0
22/12:00pm 4.4 0.1 0.7 77 1.6 NW 13 19 7 10 1013.6 1016.7 0.0
22/11:30am 3.5 -1.2 0.6 81 1.2 NW 15 19 8 10 1014.0 - 0.0
22/11:00am 4.1 -1.0 0.6 78 1.5 WNW 17 28 9 15 1014.0 - 0.0
22/10:30am 3.5 -1.2 1.2 85 1.0 WNW 15 22 8 12 1014.2 - 0.0
22/10:00am 3.1 -1.6 1.2 87 0.8 WNW 15 20 8 11 1014.5 - 0.0
22/09:30am 3.0 -1.7 1.2 88 0.8 NW 15 20 8 11 1014.5 - 0.0
22/09:00am 2.8 -1.1 1.2 89 0.7 WNW 11 17 6 9 1014.4 1017.6 2.2
22/08:30am 2.3 -2.8 0.8 90 0.6 WNW 17 28 9 15 1014.2 - 2.2
22/08:00am 2.1 -2.6 0.9 92 0.5 WNW 15 19 8 10 1014.0 - 2.2
22/07:30am 1.6 -2.8 0.4 92 0.5 NW 13 17 7 9 1014.0 - 2.2
22/07:00am 1.5 -3.3 0.2 91 0.5 NW 15 24 8 13 1013.8 - 2.2
22/06:30am 1.2 -4.0 0.0 92 0.5 NW 17 24 9 13 1013.5 - 2.2
22/06:00am 1.3 -2.8 0.1 92 0.5 NW 11 17 6 9 1013.4 1016.5 2.2
22/05:32am 1.3 -3.2 -0.2 90 0.6 NW 13 24 7 13 1013.4 - 2.2
22/05:30am 1.3 -3.2 -0.2 90 0.6 NW 13 24 7 13 1013.4 - 2.2
22/05:22am 1.4 -3.1 -0.1 90 0.6 NNW 13 26 7 14 1013.4 - 2.2
22/05:20am 1.4 -3.1 -0.1 90 0.6 NNW 13 26 7 14 1013.4 - 2.2
22/05:00am 1.5 -2.5 0.5 93 0.4 N 11 17 6 9 1013.2 - 2.2
22/04:30am 1.7 -2.2 1.3 97 0.2 NNW 11 19 6 10 1013.4 - 2.0
22/04:00am 0.9 -2.1 0.5 97 0.2 NNW 6 9 3 5 1013.2 - 2.0
22/03:36am 1.2 -4.5 0.5 95 0.3 NW 20 35 11 19 1013.2 - 2.0
22/03:34am 1.2 -4.5 0.5 95 0.3 NW 20 35 11 19 1013.2 - 2.0
22/03:30am 1.2 -5.3 0.5 95 0.3 NW 24 39 13 21 1013.2 - 2.0
22/03:23am 1.3 -5.6 0.4 94 0.4 WNW 26 43 14 23 1013.2 - 1.8
22/03:21am 1.3 -5.9 0.4 94 0.4 NW 28 43 15 23 1013.2 - 1.8
22/03:00am 1.7 -5.1 0.8 94 0.4 NNW 26 39 14 21 1013.2 1016.4 1.6
22/02:30am 2.2 -4.2 1.0 92 0.5 NW 24 39 13 21 1013.5 - 1.4
22/02:00am 2.0 -3.1 0.8 92 0.5 NNW 17 22 9 12 1013.7 - 1.4
22/01:30am 2.1 -3.6 0.5 89 0.7 NW 20 32 11 17 1014.0 - 1.4
22/01:00am 2.6 -1.8 0.5 86 0.9 NW 13 28 7 15 1013.9 - 1.2
22/12:30am 2.5 -1.5 0.2 85 0.9 NNW 11 22 6 12 1013.8 - 1.2
22/12:00am 1.8 -1.6 -0.4 85 0.9 WNW 7 17 4 9 1014.0 1017.2 1.2
 
Date/Time
EST
Temp
°C
App
Temp
°C
Dew
Point
°C
Rel
Hum
%
Delta-T
°C
Wind Press
QNH
hPa
Press
MSL
hPa
Rain since
9am
mm
Dir  Spd
km/h
Gust
km/h
Spd
kts
Gust
kts
21/11:30pm 2.2 -1.9 -0.1 85 0.9 NNW 11 19 6 10 1014.2 - 1.2
21/11:00pm 2.2 -2.6 0.3 87 0.8 NNW 15 28 8 15 1014.3 - 1.2
21/10:30pm 1.8 -1.2 0.5 91 0.5 N 6 9 3 5 1014.7 - 1.2
21/10:00pm 2.2 -2.1 0.7 90 0.6 NNW 13 33 7 18 1014.7 - 1.2
21/09:35pm 1.7 -1.2 1.3 97 0.2 N 6 11 3 6 1014.6 - 1.2
21/09:33pm 1.7 -1.2 1.3 97 0.2 N 6 11 3 6 1014.6 - 1.2
21/09:30pm 1.6 -1.3 1.2 97 0.2 N 6 11 3 6 1014.7 - 1.2
21/09:24pm 1.6 -1.5 1.2 97 0.2 N 7 13 4 7 1014.7 - 1.2
21/09:22pm 1.6 -1.5 1.2 97 0.2 N 7 13 4 7 1014.7 - 1.2
21/09:00pm 1.8 -1.3 1.2 96 0.2 N 7 11 4 6 1014.9 1018.1 1.0
21/08:30pm 2.1 -0.8 1.7 97 0.2 N 6 9 3 5 1014.6 - 0.8
21/08:00pm 2.1 -1.0 1.5 96 0.3 NW 7 11 4 6 1014.3 - 0.8
21/07:30pm 2.2 -0.9 1.6 96 0.3 NNW 7 11 4 6 1014.3 - 0.6
21/07:20pm 2.2 -2.4 1.5 95 0.3 NW 15 20 8 11 1014.3 - 0.4
21/07:18pm 2.2 -2.4 1.5 95 0.3 NW 15 20 8 11 1014.3 - 0.4
21/07:02pm 2.4 -3.0 1.2 92 0.5 NW 19 30 10 16 1014.3 - 0.4
21/07:00pm 2.4 -2.6 1.2 92 0.5 NW 17 30 9 16 1014.3 - 0.4

Other Formats:

Comma delimited format used in spreadsheet applications
http://www.bom.gov.au/fwo/IDV60801/IDV60801.94905.axf

JavaScript Object Notation format (JSON) in row-major order
http://www.bom.gov.au/fwo/IDV60801/IDV60801.94905.json